Time;durP1;ratioP1;P1;durP2;ratioP2;P2;SDS_P1;SDS_P2;PMS_P1;PMS_P2;Temp;Humidity;BMP_temperature;BMP_pressure;BME280_temperature;BME280_humidity;BME280_pressure;Samples;Min_cycle;Max_cycle;Signal;HPM_P1;HPM_P2
2022/04/10 00:01:57;;;;;;;8.40;7.45;;;;;;;;;;5038602;28;20235;-87
2022/04/10 00:04:23;;;;;;;10.73;8.63;;;;;;;;;;5043217;28;20710;-87
2022/04/10 00:06:55;;;;;;;9.13;6.78;;;;;;;;;;5074142;28;20201;-88
2022/04/10 00:09:21;;;;;;;8.77;5.70;;;;;;;;;;5077211;28;20212;-87
2022/04/10 00:11:50;;;;;;;7.55;6.28;;;;;;;;;;5062848;28;20212;-86
2022/04/10 00:14:16;;;;;;;7.30;5.43;;;;;;;;;;5077006;28;20189;-87
2022/04/10 00:16:42;;;;;;;6.72;5.43;;;;;;;;;;5063160;28;20220;-85
2022/04/10 00:19:08;;;;;;;6.45;5.78;;;;;;;;;;5061513;28;20185;-86
2022/04/10 00:21:39;;;;;;;9.18;6.32;;;;;;;;;;5060244;28;20181;-86
2022/04/10 00:24:07;;;;;;;10.20;8.10;;;;;;;;;;5060498;28;20185;-86
2022/04/10 00:26:41;;;;;;;9.57;8.02;;;;;;;;;;5060924;28;20178;-87
2022/04/10 00:29:07;;;;;;;8.63;7.75;;;;;;;;;;5044786;28;20194;-86
2022/04/10 00:31:35;;;;;;;9.02;8.13;;;;;;;;;;5080661;28;20181;-88
2022/04/10 00:34:04;;;;;;;6.78;6.10;;;;;;;;;;5060962;28;20182;-87
2022/04/10 00:36:30;;;;;;;10.40;6.85;;;;;;;;;;5062475;28;20181;-87
2022/04/10 00:38:56;;;;;;;9.95;6.90;;;;;;;;;;5060063;28;20193;-85
2022/04/10 00:41:22;;;;;;;8.15;6.25;;;;;;;;;;5077066;28;20181;-87
2022/04/10 00:44:13;;;;;;;7.40;5.50;;;;;;;;;;5072878;28;20202;-86
2022/04/10 00:46:43;;;;;;;11.65;6.78;;;;;;;;;;5059120;28;20680;-88
2022/04/10 00:49:11;;;;;;;11.65;8.50;;;;;;;;;;5060901;28;20181;-87
2022/04/10 00:51:41;;;;;;;9.13;6.03;;;;;;;;;;5059880;28;20216;-86
2022/04/10 00:54:15;;;;;;;6.07;4.97;;;;;;;;;;5059986;28;20181;-87
2022/04/10 00:56:44;;;;;;;8.75;4.50;;;;;;;;;;5059693;28;20179;-88
2022/04/10 00:59:11;;;;;;;7.82;4.93;;;;;;;;;;5076486;28;20178;-86
2022/04/10 01:01:45;;;;;;;7.07;4.90;;;;;;;;;;5078156;28;20240;-87
2022/04/10 01:04:18;;;;;;;8.13;5.75;;;;;;;;;;5057191;28;20224;-87
2022/04/10 01:06:51;;;;;;;10.95;7.32;;;;;;;;;;5059145;28;20204;-88
2022/04/10 01:09:20;;;;;;;9.27;7.40;;;;;;;;;;5058399;28;20224;-88
2022/04/10 01:11:58;;;;;;;12.63;6.32;;;;;;;;;;5060966;28;20220;-87
2022/04/10 01:14:27;;;;;;;9.23;6.25;;;;;;;;;;5075164;28;20276;-87
2022/04/10 01:16:54;;;;;;;9.88;6.18;;;;;;;;;;5078294;28;20206;-87
2022/04/10 01:19:21;;;;;;;10.32;6.90;;;;;;;;;;5061705;28;20165;-87
2022/04/10 01:21:59;;;;;;;13.75;7.70;;;;;;;;;;5061443;28;20176;-89
2022/04/10 01:24:26;;;;;;;8.40;6.30;;;;;;;;;;5061117;28;20193;-87
2022/04/10 01:26:52;;;;;;;9.25;5.90;;;;;;;;;;5060499;28;20180;-87
2022/04/10 01:29:28;;;;;;;8.18;5.28;;;;;;;;;;5075587;28;20273;-87
2022/04/10 01:31:54;;;;;;;7.22;4.38;;;;;;;;;;5064884;28;20665;-87
2022/04/10 01:34:26;;;;;;;7.07;5.60;;;;;;;;;;5060759;28;20207;-87
2022/04/10 01:37:01;;;;;;;6.47;5.88;;;;;;;;;;5058691;28;20193;-88
2022/04/10 01:39:32;;;;;;;7.45;4.53;;;;;;;;;;5058562;28;20185;-87
2022/04/10 01:42:06;;;;;;;15.50;6.70;;;;;;;;;;5058766;28;20231;-87
2022/04/10 01:44:42;;;;;;;8.55;4.40;;;;;;;;;;5059539;28;20177;-87
2022/04/10 01:47:09;;;;;;;24.27;9.60;;;;;;;;;;5046598;28;20181;-88
2022/04/10 01:49:38;;;;;;;28.45;11.63;;;;;;;;;;5075855;28;20196;-87
2022/04/10 01:52:14;;;;;;;31.15;14.40;;;;;;;;;;5061564;28;20185;-88
2022/04/10 01:54:43;;;;;;;55.70;21.17;;;;;;;;;;5059262;28;20185;-86
2022/04/10 01:57:22;;;;;;;19.48;12.27;;;;;;;;;;5043045;28;20189;-88
2022/04/10 01:59:51;;;;;;;10.93;8.88;;;;;;;;;;5051801;28;20215;-88
2022/04/10 02:02:47;;;;;;;8.10;6.00;;;;;;;;;;5076302;28;20259;-87
2022/04/10 02:06:10;;;;;;;;;;;;;;;;;;;;;
2022/04/10 02:33:56;;;;;;;;;;;;;;;;;;;;;
2022/04/10 02:40:15;;;;;;;;;;;;;;;;;;;;;
2022/04/10 03:11:02;;;;;;;;;;;;;;;;;;;;;
2022/04/10 03:20:27;;;;;;;;;;;;;;;;;;;;;
2022/04/10 03:30:28;;;;;;;;;;;;;;;;;;;;;
2022/04/10 03:32:53;;;;;;;3.80;2.90;;;;;;;;;;4886288;29;20217;-88
2022/04/10 03:36:00;;;;;;;;;;;;;;;;;;;;;
2022/04/10 04:17:23;;;;;;;3.33;2.95;;;;;;;;;;4666697;30;20226;-86
2022/04/10 04:29:58;;;;;;;2.92;2.25;;;;;;;;;;4653440;30;20207;-88
2022/04/10 04:52:20;;;;;;;;;;;;;;;;;;;;;
2022/04/10 04:57:56;;;;;;;5.18;2.55;;;;;;;;;;4846016;29;20190;-87
2022/04/10 05:00:39;;;;;;;2.92;2.40;;;;;;;;;;4887447;29;20202;-87
2022/04/10 05:03:22;;;;;;;3.83;2.60;;;;;;;;;;4885943;29;20747;-86
2022/04/10 05:05:49;;;;;;;2.42;1.90;;;;;;;;;;4900080;29;20194;-87
2022/04/10 05:08:20;;;;;;;4.25;2.53;;;;;;;;;;4957225;28;20182;-86
2022/04/10 05:10:57;;;;;;;2.80;2.28;;;;;;;;;;4958725;28;20202;-86
2022/04/10 05:16:18;;;;;;;3.58;2.47;;;;;;;;;;4943351;29;20240;-87
2022/04/10 05:18:47;;;;;;;3.53;3.13;;;;;;;;;;4957047;28;20201;-86
2022/04/10 05:21:13;;;;;;;7.00;3.00;;;;;;;;;;5003156;28;20186;-86
2022/04/10 05:23:39;;;;;;;3.58;2.65;;;;;;;;;;5015284;28;20213;-86
2022/04/10 05:26:05;;;;;;;3.08;2.75;;;;;;;;;;5002705;28;20243;-86
2022/04/10 05:28:33;;;;;;;5.35;2.40;;;;;;;;;;5006426;28;20254;-87
2022/04/10 05:30:59;;;;;;;3.10;2.17;;;;;;;;;;5021917;28;20756;-86
2022/04/10 05:33:25;;;;;;;8.05;2.60;;;;;;;;;;5011239;28;20269;-87
2022/04/10 05:35:55;;;;;;;9.75;2.92;;;;;;;;;;5002355;28;20202;-91
2022/04/10 05:38:22;;;;;;;3.85;2.70;;;;;;;;;;5003667;28;20186;-90
2022/04/10 05:40:52;;;;;;;2.80;2.05;;;;;;;;;;5004640;28;20175;-87
2022/04/10 05:43:21;;;;;;;4.85;3.05;;;;;;;;;;5022208;28;20198;-86
2022/04/10 05:45:47;;;;;;;4.45;1.90;;;;;;;;;;5003343;28;20181;-87
2022/04/10 05:48:16;;;;;;;3.35;2.13;;;;;;;;;;5006887;28;20216;-87
2022/04/10 05:50:48;;;;;;;7.47;2.95;;;;;;;;;;5002998;28;20197;-89
2022/04/10 05:53:15;;;;;;;4.78;2.30;;;;;;;;;;5004422;28;20201;-87
2022/04/10 05:55:41;;;;;;;4.07;2.70;;;;;;;;;;5005275;28;20178;-87
2022/04/10 05:58:09;;;;;;;3.72;2.13;;;;;;;;;;5006558;28;20169;-88
2022/04/10 06:00:57;;;;;;;3.13;2.38;;;;;;;;;;5009317;28;20198;-88
2022/04/10 06:03:42;;;;;;;3.47;2.33;;;;;;;;;;5002797;28;20206;-87
2022/04/10 06:06:40;;;;;;;4.68;2.42;;;;;;;;;;5012603;28;20186;-87
2022/04/10 06:11:57;;;;;;;4.38;2.25;;;;;;;;;;5020691;28;20272;-86
2022/04/10 06:14:30;;;;;;;5.20;2.40;;;;;;;;;;5032551;28;20230;-87
2022/04/10 06:16:59;;;;;;;4.60;2.45;;;;;;;;;;5036894;28;20217;-86
2022/04/10 06:19:27;;;;;;;4.80;2.83;;;;;;;;;;5041615;28;20186;-86
2022/04/10 06:21:53;;;;;;;5.45;2.92;;;;;;;;;;5058719;28;20173;-86
2022/04/10 06:24:22;;;;;;;4.05;3.20;;;;;;;;;;5054538;28;20182;-89
2022/04/10 06:26:51;;;;;;;4.45;2.88;;;;;;;;;;5023323;28;20173;-87
2022/04/10 06:29:17;;;;;;;5.07;2.85;;;;;;;;;;5039494;28;20179;-88
2022/04/10 06:31:43;;;;;;;6.05;3.03;;;;;;;;;;5056634;28;20197;-86
2022/04/10 06:34:10;;;;;;;3.95;3.08;;;;;;;;;;5056528;28;20212;-88
2022/04/10 06:36:36;;;;;;;6.13;2.90;;;;;;;;;;5061613;28;20189;-88
2022/04/10 06:39:02;;;;;;;3.08;2.80;;;;;;;;;;5042865;28;20185;-90
2022/04/10 06:41:28;;;;;;;3.67;2.67;;;;;;;;;;5058784;28;20197;-85
2022/04/10 06:43:54;;;;;;;7.50;6.72;;;;;;;;;;5047910;28;20218;-84
2022/04/10 06:46:21;;;;;;;11.07;6.55;;;;;;;;;;5048292;28;20645;-84
2022/04/10 06:48:47;;;;;;;8.13;7.18;;;;;;;;;;5046624;28;20185;-84
2022/04/10 06:51:13;;;;;;;7.85;6.07;;;;;;;;;;5042892;28;20185;-83
2022/04/10 06:53:39;;;;;;;12.38;7.10;;;;;;;;;;5044917;28;20248;-83
2022/04/10 06:56:05;;;;;;;7.75;6.13;;;;;;;;;;5024637;28;20212;-83
2022/04/10 06:58:31;;;;;;;6.53;4.18;;;;;;;;;;5029031;28;20182;-83
2022/04/10 07:00:57;;;;;;;5.00;3.70;;;;;;;;;;5040001;28;20653;-83
2022/04/10 07:03:23;;;;;;;7.80;3.75;;;;;;;;;;5043648;28;20213;-82
2022/04/10 07:05:49;;;;;;;8.13;4.40;;;;;;;;;;5046864;28;20177;-83
2022/04/10 07:08:15;;;;;;;5.55;3.47;;;;;;;;;;5043588;28;20178;-83
2022/04/10 07:10:41;;;;;;;4.55;3.70;;;;;;;;;;5049629;28;20200;-83
2022/04/10 07:13:08;;;;;;;11.57;4.63;;;;;;;;;;5044524;28;20218;-83
2022/04/10 07:15:34;;;;;;;4.97;3.30;;;;;;;;;;5049570;28;20178;-83
2022/04/10 07:18:00;;;;;;;8.38;4.07;;;;;;;;;;5053867;28;20190;-82
2022/04/10 07:20:26;;;;;;;3.58;3.00;;;;;;;;;;5044909;28;20255;-83
2022/04/10 07:25:37;;;;;;;3.90;3.25;;;;;;;;;;5046075;28;20638;-83
2022/04/10 07:28:03;;;;;;;5.75;3.00;;;;;;;;;;5042479;28;20170;-82
2022/04/10 07:30:30;;;;;;;8.48;3.95;;;;;;;;;;5060447;28;20591;-83
2022/04/10 07:32:56;;;;;;;4.75;3.92;;;;;;;;;;5026008;28;20182;-83
2022/04/10 07:35:22;;;;;;;7.00;3.80;;;;;;;;;;5052946;28;20189;-83
2022/04/10 07:37:49;;;;;;;5.90;4.13;;;;;;;;;;5028910;28;20182;-82
2022/04/10 07:40:15;;;;;;;6.82;4.03;;;;;;;;;;5050942;28;20214;-83
2022/04/10 07:42:45;;;;;;;5.97;5.03;;;;;;;;;;5045867;28;20197;-82
2022/04/10 07:47:25;;;;;;;6.90;5.18;;;;;;;;;;5045598;28;20264;-83
2022/04/10 07:47:58;;;;;;;6.40;4.97;;;;;;;;;;5043479;28;20186;-83
2022/04/10 07:50:24;;;;;;;8.13;5.82;;;;;;;;;;5036159;28;20197;-83
2022/04/10 07:52:50;;;;;;;7.00;6.40;;;;;;;;;;5042501;28;20188;-83
2022/04/10 07:55:16;;;;;;;6.85;6.15;;;;;;;;;;5042866;28;20220;-83
2022/04/10 07:57:42;;;;;;;9.00;6.50;;;;;;;;;;5022833;28;20185;-83
2022/04/10 08:00:09;;;;;;;8.98;7.13;;;;;;;;;;5038626;28;20611;-83
2022/04/10 08:02:35;;;;;;;10.35;7.40;;;;;;;;;;5042371;28;20206;-83
2022/04/10 08:05:01;;;;;;;7.25;6.45;;;;;;;;;;5042119;28;20182;-83
2022/04/10 08:07:27;;;;;;;9.88;7.00;;;;;;;;;;5043640;28;20181;-83
2022/04/10 08:09:54;;;;;;;10.40;6.85;;;;;;;;;;5057240;28;20185;-84
2022/04/10 08:12:20;;;;;;;14.80;7.50;;;;;;;;;;5030339;28;20286;-82
2022/04/10 08:14:48;;;;;;;21.50;6.70;;;;;;;;;;5042561;28;20256;-82
2022/04/10 08:17:14;;;;;;;8.60;7.30;;;;;;;;;;5047639;28;20190;-83
2022/04/10 08:19:40;;;;;;;9.50;7.18;;;;;;;;;;5043299;28;20182;-82
2022/04/10 08:22:06;;;;;;;7.40;6.75;;;;;;;;;;5028349;28;20177;-84
2022/04/10 08:24:32;;;;;;;11.38;7.03;;;;;;;;;;5048340;28;20194;-82
2022/04/10 08:26:59;;;;;;;8.38;6.75;;;;;;;;;;5040465;28;20237;-80
2022/04/10 08:29:25;;;;;;;6.68;5.93;;;;;;;;;;5040567;28;20181;-82
2022/04/10 08:31:51;;;;;;;8.07;5.85;;;;;;;;;;5042890;28;20244;-83
2022/04/10 08:34:17;;;;;;;10.05;6.40;;;;;;;;;;5058068;28;20253;-80
2022/04/10 08:36:44;;;;;;;8.30;6.50;;;;;;;;;;5034297;28;20184;-80
2022/04/10 08:39:10;;;;;;;14.63;6.00;;;;;;;;;;5048086;28;20177;-82
2022/04/10 08:41:37;;;;;;;9.82;6.05;;;;;;;;;;5034552;28;20185;-81
2022/04/10 08:44:03;;;;;;;8.43;6.03;;;;;;;;;;5047678;28;20264;-82
2022/04/10 08:46:30;;;;;;;6.32;5.57;;;;;;;;;;5040448;28;20182;-83
2022/04/10 08:48:56;;;;;;;6.95;5.75;;;;;;;;;;5040917;28;20194;-82
2022/04/10 08:51:23;;;;;;;5.97;4.63;;;;;;;;;;5050251;28;20256;-83
2022/04/10 08:53:49;;;;;;;5.32;4.65;;;;;;;;;;5031085;28;20296;-84
2022/04/10 08:56:15;;;;;;;6.10;4.47;;;;;;;;;;5016384;28;20215;-79
2022/04/10 08:58:41;;;;;;;5.05;4.05;;;;;;;;;;5028756;28;20181;-82
2022/04/10 09:01:14;;;;;;;6.57;4.30;;;;;;;;;;5043750;28;20232;-81
2022/04/10 09:03:40;;;;;;;7.43;5.10;;;;;;;;;;5039146;28;20210;-80
2022/04/10 09:06:06;;;;;;;6.83;4.70;;;;;;;;;;5048074;28;20181;-83
2022/04/10 09:08:33;;;;;;;6.70;4.90;;;;;;;;;;5061346;28;20467;-82
2022/04/10 09:11:02;;;;;;;6.53;4.45;;;;;;;;;;5031405;28;20194;-81
2022/04/10 09:13:41;;;;;;;6.30;5.70;;;;;;;;;;5043801;28;20722;-84
2022/04/10 09:16:07;;;;;;;7.60;3.60;;;;;;;;;;5019187;28;20184;-84
2022/04/10 09:18:49;;;;;;;8.02;4.30;;;;;;;;;;5039487;28;20214;-85
2022/04/10 09:21:15;;;;;;;4.70;3.30;;;;;;;;;;5030088;28;20189;-82
2022/04/10 09:23:45;;;;;;;3.92;3.45;;;;;;;;;;5024711;28;20213;-82
2022/04/10 09:26:12;;;;;;;4.22;3.33;;;;;;;;;;5028279;28;20239;-84
2022/04/10 09:28:42;;;;;;;6.57;3.78;;;;;;;;;;5033910;28;20185;-83
2022/04/10 09:31:25;;;;;;;5.93;3.40;;;;;;;;;;5042604;28;20614;-84
2022/04/10 09:33:52;;;;;;;2.85;2.50;;;;;;;;;;5040196;28;20190;-82
2022/04/10 09:36:50;;;;;;;4.35;2.80;;;;;;;;;;5039610;28;20277;-80
2022/04/10 09:39:32;;;;;;;5.70;2.78;;;;;;;;;;4973254;28;20219;-82
2022/04/10 09:42:06;;;;;;;2.55;2.35;;;;;;;;;;4982420;28;20199;-82
2022/04/10 09:44:36;;;;;;;5.07;2.45;;;;;;;;;;4977231;28;20180;-84
2022/04/10 09:47:05;;;;;;;4.05;2.70;;;;;;;;;;4978120;28;20251;-82
2022/04/10 09:49:34;;;;;;;3.95;2.30;;;;;;;;;;4978475;28;20287;-81
2022/04/10 09:52:03;;;;;;;5.88;2.00;;;;;;;;;;4970132;28;20176;-81
2022/04/10 09:54:57;;;;;;;4.63;2.40;;;;;;;;;;4982344;28;20258;-83
2022/04/10 09:57:23;;;;;;;3.10;2.30;;;;;;;;;;4981424;28;20255;-83
2022/04/10 09:59:49;;;;;;;3.80;3.20;;;;;;;;;;4983240;28;20197;-80
2022/04/10 10:02:17;;;;;;;6.22;2.83;;;;;;;;;;4967172;28;20247;-80
2022/04/10 10:04:43;;;;;;;3.35;2.35;;;;;;;;;;4982622;28;20184;-81
2022/04/10 10:07:11;;;;;;;3.65;2.42;;;;;;;;;;4984651;28;20187;-82
2022/04/10 10:09:38;;;;;;;6.53;3.65;;;;;;;;;;4980878;28;20198;-80
2022/04/10 10:12:05;;;;;;;3.72;2.05;;;;;;;;;;4969005;28;20207;-82
2022/04/10 10:14:32;;;;;;;5.10;2.25;;;;;;;;;;4987878;28;20213;-82
2022/04/10 10:16:59;;;;;;;1.98;1.65;;;;;;;;;;5050747;28;20179;-82
2022/04/10 10:19:25;;;;;;;2.22;1.40;;;;;;;;;;5066062;28;20190;-82
2022/04/10 10:21:53;;;;;;;2.40;1.60;;;;;;;;;;5055018;28;20181;-83
2022/04/10 10:24:20;;;;;;;1.35;1.17;;;;;;;;;;5040417;28;20212;-84
2022/04/10 10:27:13;;;;;;;2.40;1.33;;;;;;;;;;5039905;28;20182;-82
2022/04/10 10:29:57;;;;;;;2.35;1.63;;;;;;;;;;4993289;28;20199;-80
2022/04/10 10:32:35;;;;;;;2.42;1.75;;;;;;;;;;4981639;28;20201;-83
2022/04/10 10:35:01;;;;;;;2.40;1.70;;;;;;;;;;4963975;28;20274;-81
2022/04/10 10:37:31;;;;;;;1.58;1.30;;;;;;;;;;4981808;28;20183;-82
2022/04/10 10:39:58;;;;;;;2.03;1.88;;;;;;;;;;4977675;28;20203;-80
2022/04/10 10:42:24;;;;;;;2.03;1.50;;;;;;;;;;4977992;28;20219;-83
2022/04/10 10:44:51;;;;;;;3.60;2.00;;;;;;;;;;4986522;28;20194;-84
2022/04/10 10:47:22;;;;;;;2.45;1.52;;;;;;;;;;4984578;28;20302;-84
2022/04/10 10:49:49;;;;;;;4.40;2.55;;;;;;;;;;4969760;28;20176;-83
2022/04/10 10:52:15;;;;;;;2.72;2.00;;;;;;;;;;4979759;28;20176;-83
2022/04/10 10:54:52;;;;;;;5.10;1.90;;;;;;;;;;4986898;28;20283;-80
2022/04/10 10:57:24;;;;;;;4.65;2.95;;;;;;;;;;4986913;28;20191;-81
2022/04/10 10:59:51;;;;;;;7.93;2.95;;;;;;;;;;4986061;28;20226;-83
2022/04/10 11:02:19;;;;;;;2.97;1.80;;;;;;;;;;4984235;28;20212;-82
2022/04/10 11:04:46;;;;;;;2.53;1.70;;;;;;;;;;4986320;28;20184;-82
2022/04/10 11:07:27;;;;;;;5.47;1.90;;;;;;;;;;5034806;28;20653;-83
2022/04/10 11:09:58;;;;;;;2.90;2.25;;;;;;;;;;5043179;28;20181;-81
2022/04/10 11:12:29;;;;;;;1.60;1.50;;;;;;;;;;5058856;28;20332;-82
2022/04/10 11:14:56;;;;;;;9.85;4.80;;;;;;;;;;5058501;28;20289;-82
2022/04/10 11:17:32;;;;;;;4.05;2.70;;;;;;;;;;5058853;28;20221;-82
2022/04/10 11:20:05;;;;;;;4.65;2.80;;;;;;;;;;5043323;28;20186;-82
2022/04/10 11:22:31;;;;;;;5.25;1.98;;;;;;;;;;5058369;28;20231;-83
2022/04/10 11:24:59;;;;;;;2.97;2.35;;;;;;;;;;5059513;28;20187;-85
2022/04/10 11:27:44;;;;;;;2.45;1.50;;;;;;;;;;5043523;28;20204;-82
2022/04/10 11:30:14;;;;;;;2.50;1.60;;;;;;;;;;5058242;28;20182;-81
2022/04/10 11:32:41;;;;;;;3.90;2.10;;;;;;;;;;5058335;28;20190;-82
2022/04/10 11:35:13;;;;;;;3.08;1.42;;;;;;;;;;5057443;28;20889;-81
2022/04/10 11:37:39;;;;;;;3.00;2.38;;;;;;;;;;5060679;28;20544;-79
2022/04/10 11:40:07;;;;;;;2.85;2.08;;;;;;;;;;5060547;28;20635;-82
2022/04/10 11:42:34;;;;;;;2.45;2.25;;;;;;;;;;5043208;28;20558;-82
2022/04/10 11:45:00;;;;;;;4.50;2.10;;;;;;;;;;5058115;28;20181;-81
2022/04/10 11:47:26;;;;;;;1.95;1.80;;;;;;;;;;5041818;28;20185;-82
2022/04/10 11:49:53;;;;;;;4.10;2.20;;;;;;;;;;5058626;28;20201;-82
2022/04/10 11:52:19;;;;;;;3.40;2.70;;;;;;;;;;5045178;28;20409;-81
2022/04/10 11:54:46;;;;;;;3.45;2.40;;;;;;;;;;5042781;28;20247;-83
2022/04/10 11:57:12;;;;;;;2.40;2.20;;;;;;;;;;5042869;28;20201;-81
2022/04/10 11:59:39;;;;;;;1.90;1.70;;;;;;;;;;5042630;28;20174;-81
2022/04/10 12:02:08;;;;;;;3.10;2.80;;;;;;;;;;5042359;28;20190;-82
2022/04/10 12:04:36;;;;;;;3.25;2.40;;;;;;;;;;5043983;28;20181;-81
2022/04/10 12:07:16;;;;;;;4.63;2.55;;;;;;;;;;5043126;28;20197;-82
2022/04/10 12:09:43;;;;;;;5.53;4.07;;;;;;;;;;5057373;28;20186;-81
2022/04/10 12:12:09;;;;;;;4.93;3.25;;;;;;;;;;5042330;28;20250;-81
2022/04/10 12:14:35;;;;;;;3.38;2.30;;;;;;;;;;5042333;28;20629;-82
2022/04/10 12:17:01;;;;;;;4.73;2.63;;;;;;;;;;5026654;28;20184;-81
2022/04/10 12:19:31;;;;;;;3.35;3.05;;;;;;;;;;5060283;28;20459;-81
2022/04/10 12:21:57;;;;;;;6.10;2.97;;;;;;;;;;5042148;28;20181;-81
2022/04/10 12:24:23;;;;;;;7.18;4.30;;;;;;;;;;5057276;28;20201;-82
2022/04/10 12:26:50;;;;;;;3.60;2.70;;;;;;;;;;5041922;28;20182;-82
2022/04/10 12:29:17;;;;;;;2.87;2.67;;;;;;;;;;5049690;28;20434;-82
2022/04/10 12:31:43;;;;;;;3.50;2.83;;;;;;;;;;5043998;28;20388;-82
2022/04/10 12:34:10;;;;;;;4.43;2.93;;;;;;;;;;5042079;28;20395;-83
2022/04/10 12:36:44;;;;;;;2.90;2.57;;;;;;;;;;5041993;28;20439;-80
2022/04/10 12:39:11;;;;;;;3.23;2.57;;;;;;;;;;5041870;28;20455;-83
2022/04/10 12:41:36;;;;;;;3.40;3.20;;;;;;;;;;5035821;28;20442;-82
2022/04/10 12:44:06;;;;;;;3.10;2.70;;;;;;;;;;5041690;28;20492;-83
2022/04/10 12:46:34;;;;;;;3.70;3.40;;;;;;;;;;5041760;28;20443;-82
2022/04/10 12:49:16;;;;;;;4.20;3.57;;;;;;;;;;5023777;28;20431;-82
2022/04/10 12:51:55;;;;;;;3.53;3.17;;;;;;;;;;5041113;28;20436;-83
2022/04/10 12:54:33;;;;;;;3.53;2.87;;;;;;;;;;5033009;28;20456;-82
2022/04/10 12:57:00;;;;;;;4.73;2.50;;;;;;;;;;5041780;28;20500;-82
2022/04/10 12:59:46;;;;;;;2.70;2.20;;;;;;;;;;5036214;28;20428;-83
2022/04/10 13:02:35;;;;;;;4.70;3.30;;;;;;;;;;5026466;28;20921;-83
2022/04/10 13:05:06;;;;;;;4.87;3.60;;;;;;;;;;5025136;28;20446;-82
2022/04/10 13:07:32;;;;;;;2.50;1.83;;;;;;;;;;5041202;28;20421;-83
2022/04/10 13:10:01;;;;;;;2.83;2.53;;;;;;;;;;5041240;28;20433;-83
2022/04/10 13:12:31;;;;;;;3.10;2.80;;;;;;;;;;5056621;28;20891;-83
2022/04/10 13:14:57;;;;;;;3.47;2.30;;;;;;;;;;5041158;28;20476;-81
2022/04/10 13:17:32;;;;;;;3.10;2.30;;;;;;;;;;5040980;28;20563;-83
2022/04/10 13:20:05;;;;;;;1.70;1.60;;;;;;;;;;5041086;28;20498;-81
2022/04/10 13:22:31;;;;;;;2.33;2.13;;;;;;;;;;5056174;28;20590;-83
2022/04/10 13:24:57;;;;;;;1.97;1.73;;;;;;;;;;5041072;28;20439;-82
2022/04/10 13:27:23;;;;;;;3.00;2.60;;;;;;;;;;5032085;28;20429;-84
2022/04/10 13:29:49;;;;;;;2.17;1.90;;;;;;;;;;5056308;28;20725;-82
2022/04/10 13:32:15;;;;;;;2.27;2.00;;;;;;;;;;5036866;28;20436;-83
2022/04/10 13:34:41;;;;;;;3.00;1.90;;;;;;;;;;5057851;28;20444;-81
2022/04/10 13:37:07;;;;;;;3.30;1.90;;;;;;;;;;5042433;28;20405;-82
2022/04/10 13:39:33;;;;;;;1.73;1.63;;;;;;;;;;5041106;28;20440;-83
2022/04/10 13:42:02;;;;;;;2.70;1.90;;;;;;;;;;5040209;28;20428;-82
2022/04/10 13:44:29;;;;;;;1.93;1.73;;;;;;;;;;5040862;28;20425;-82
2022/04/10 13:46:55;;;;;;;3.60;2.33;;;;;;;;;;5041139;28;20419;-82
2022/04/10 13:49:21;;;;;;;1.87;1.77;;;;;;;;;;5042815;28;20452;-83
2022/04/10 13:51:47;;;;;;;2.40;2.20;;;;;;;;;;5028074;28;20418;-83
2022/04/10 13:54:13;;;;;;;2.20;1.77;;;;;;;;;;5040659;28;20505;-83
2022/04/10 13:56:39;;;;;;;2.53;1.53;;;;;;;;;;5055494;28;20575;-82
2022/04/10 13:59:05;;;;;;;2.03;1.60;;;;;;;;;;5040587;28;20738;-82
2022/04/10 14:01:35;;;;;;;3.83;2.20;;;;;;;;;;5025942;28;20422;-82
2022/04/10 14:04:01;;;;;;;1.90;1.80;;;;;;;;;;5056868;28;20491;-82
2022/04/10 14:06:27;;;;;;;3.47;2.40;;;;;;;;;;5040265;28;20404;-80
2022/04/10 14:08:56;;;;;;;2.67;1.63;;;;;;;;;;5034184;28;20403;-83
2022/04/10 14:11:22;;;;;;;2.40;2.13;;;;;;;;;;5040496;28;20455;-82
2022/04/10 14:13:49;;;;;;;3.40;2.40;;;;;;;;;;5042112;28;20443;-83
2022/04/10 14:16:15;;;;;;;2.33;2.10;;;;;;;;;;5041895;28;20432;-81
2022/04/10 14:18:41;;;;;;;2.47;2.00;;;;;;;;;;5039689;28;20875;-82
2022/04/10 14:21:10;;;;;;;2.90;2.25;;;;;;;;;;5039622;28;20278;-82
2022/04/10 14:23:36;;;;;;;3.25;2.45;;;;;;;;;;5040132;28;20209;-82
2022/04/10 14:26:02;;;;;;;4.03;2.33;;;;;;;;;;5038805;28;20183;-82
2022/04/10 14:28:28;;;;;;;2.28;2.08;;;;;;;;;;5042627;28;20421;-81
2022/04/10 14:30:54;;;;;;;1.70;1.60;;;;;;;;;;5039196;28;20189;-81
2022/04/10 14:33:21;;;;;;;4.43;2.65;;;;;;;;;;5021966;28;20447;-82
2022/04/10 14:35:47;;;;;;;2.10;1.88;;;;;;;;;;5038478;28;20247;-81
2022/04/10 14:38:13;;;;;;;2.20;1.80;;;;;;;;;;5023041;28;20190;-81
2022/04/10 14:40:42;;;;;;;2.90;2.22;;;;;;;;;;5042280;28;20412;-82
2022/04/10 14:43:10;;;;;;;2.33;2.13;;;;;;;;;;5037302;28;20253;-79
2022/04/10 14:45:36;;;;;;;3.10;2.10;;;;;;;;;;5050993;28;20242;-89
2022/04/10 14:48:04;;;;;;;2.60;2.40;;;;;;;;;;5039563;28;20182;-83
2022/04/10 14:50:31;;;;;;;2.55;2.10;;;;;;;;;;5039282;28;20444;-82
2022/04/10 14:52:57;;;;;;;1.90;1.40;;;;;;;;;;5039892;28;20190;-83
2022/04/10 14:55:23;;;;;;;2.40;2.20;;;;;;;;;;5039416;28;20178;-83
2022/04/10 14:57:49;;;;;;;7.78;6.90;;;;;;;;;;5038501;28;20344;-83
2022/04/10 15:00:15;;;;;;;4.07;2.10;;;;;;;;;;5039536;28;20360;-84
2022/04/10 15:02:41;;;;;;;2.80;2.60;;;;;;;;;;5026027;28;20247;-84
2022/04/10 15:05:07;;;;;;;2.00;1.90;;;;;;;;;;5045393;28;20623;-82
2022/04/10 15:07:34;;;;;;;3.63;1.83;;;;;;;;;;5042871;28;20412;-83
2022/04/10 15:10:00;;;;;;;4.32;2.20;;;;;;;;;;5041400;28;20178;-83
2022/04/10 15:12:26;;;;;;;2.72;2.15;;;;;;;;;;5040291;28;20190;-82
2022/04/10 15:14:53;;;;;;;2.80;1.80;;;;;;;;;;5039053;28;20256;-83
2022/04/10 15:17:23;;;;;;;2.63;1.85;;;;;;;;;;5040855;28;20280;-82
2022/04/10 15:19:51;;;;;;;6.35;2.22;;;;;;;;;;5037530;28;20571;-83
2022/04/10 15:22:17;;;;;;;2.40;1.95;;;;;;;;;;5043341;28;20252;-83
2022/04/10 15:24:43;;;;;;;2.40;2.20;;;;;;;;;;5043607;28;20177;-80
2022/04/10 15:27:16;;;;;;;2.38;2.15;;;;;;;;;;5043988;28;20206;-83
2022/04/10 15:29:49;;;;;;;2.38;2.17;;;;;;;;;;5044368;28;20185;-83
2022/04/10 15:32:15;;;;;;;2.33;2.00;;;;;;;;;;5059266;28;20180;-81
2022/04/10 15:34:41;;;;;;;2.67;2.10;;;;;;;;;;5043041;28;20189;-83
2022/04/10 15:37:07;;;;;;;2.63;1.87;;;;;;;;;;5051816;28;20193;-82
2022/04/10 15:39:33;;;;;;;3.45;2.00;;;;;;;;;;5044138;28;20448;-83
2022/04/10 15:41:59;;;;;;;1.60;1.50;;;;;;;;;;5040482;28;20244;-81
2022/04/10 15:44:25;;;;;;;3.53;1.87;;;;;;;;;;5046973;28;20223;-82
2022/04/10 15:46:51;;;;;;;3.00;1.40;;;;;;;;;;5059371;28;20425;-82
2022/04/10 15:49:22;;;;;;;2.00;1.90;;;;;;;;;;5043911;28;20493;-82
2022/04/10 15:51:48;;;;;;;2.10;2.00;;;;;;;;;;5040892;28;20188;-83
2022/04/10 15:54:17;;;;;;;4.95;2.28;;;;;;;;;;5042488;28;20722;-83
2022/04/10 15:56:46;;;;;;;2.88;2.10;;;;;;;;;;5041584;28;20191;-83
2022/04/10 15:59:12;;;;;;;2.60;2.00;;;;;;;;;;5043823;28;20272;-82
2022/04/10 16:01:39;;;;;;;4.22;1.80;;;;;;;;;;5045218;28;20185;-83
2022/04/10 16:04:05;;;;;;;2.85;1.70;;;;;;;;;;5042691;28;20202;-82
2022/04/10 16:06:36;;;;;;;1.52;1.40;;;;;;;;;;5054846;28;20187;-84
2022/04/10 16:09:02;;;;;;;2.28;2.08;;;;;;;;;;5055957;28;20315;-82
2022/04/10 16:11:34;;;;;;;2.60;2.40;;;;;;;;;;5042529;28;20240;-83
2022/04/10 16:14:04;;;;;;;1.80;1.70;;;;;;;;;;5058054;28;20221;-83
2022/04/10 16:16:30;;;;;;;2.30;1.80;;;;;;;;;;5031667;28;20185;-82
2022/04/10 16:18:56;;;;;;;2.38;2.08;;;;;;;;;;5030280;28;20213;-84
2022/04/10 16:21:23;;;;;;;1.98;1.70;;;;;;;;;;5036895;28;20588;-83
2022/04/10 16:23:49;;;;;;;3.25;2.05;;;;;;;;;;5035870;28;20206;-82
2022/04/10 16:26:15;;;;;;;2.40;2.05;;;;;;;;;;5023968;28;20681;-83
2022/04/10 16:31:27;;;;;;;2.17;2.00;;;;;;;;;;5044923;28;20190;-83
2022/04/10 16:36:38;;;;;;;2.03;1.92;;;;;;;;;;5041739;28;20202;-83
2022/04/10 16:39:05;;;;;;;2.13;1.85;;;;;;;;;;5041301;28;20185;-83
2022/04/10 16:41:31;;;;;;;1.95;1.73;;;;;;;;;;5035830;28;20219;-83
2022/04/10 16:43:57;;;;;;;1.90;1.75;;;;;;;;;;5042469;28;20757;-85
2022/04/10 16:46:23;;;;;;;2.60;1.70;;;;;;;;;;5042965;28;20234;-82
2022/04/10 16:48:50;;;;;;;2.85;1.80;;;;;;;;;;5023467;28;20194;-83
2022/04/10 16:51:16;;;;;;;4.10;1.33;;;;;;;;;;5034431;28;20184;-83
2022/04/10 16:53:44;;;;;;;1.88;1.77;;;;;;;;;;5040926;28;20183;-83
2022/04/10 16:56:10;;;;;;;1.73;1.63;;;;;;;;;;5041336;28;20205;-86
2022/04/10 16:58:36;;;;;;;1.92;1.70;;;;;;;;;;5028466;28;20183;-83
2022/04/10 17:01:02;;;;;;;1.73;1.63;;;;;;;;;;5038732;28;20196;-85
2022/04/10 17:03:29;;;;;;;3.30;1.70;;;;;;;;;;5040831;28;20249;-84
2022/04/10 17:05:55;;;;;;;2.05;1.85;;;;;;;;;;5040079;28;20535;-82
2022/04/10 17:08:36;;;;;;;2.25;1.70;;;;;;;;;;5040378;28;20190;-82
2022/04/10 17:11:05;;;;;;;4.65;2.08;;;;;;;;;;5028547;28;20193;-80
2022/04/10 17:13:34;;;;;;;3.42;1.85;;;;;;;;;;5044158;28;20217;-85
2022/04/10 17:16:00;;;;;;;2.03;1.83;;;;;;;;;;5036899;28;20185;-82
2022/04/10 17:18:30;;;;;;;1.60;1.50;;;;;;;;;;5040968;28;20673;-83
2022/04/10 17:20:58;;;;;;;2.85;2.25;;;;;;;;;;5040413;28;20200;-83
2022/04/10 17:23:34;;;;;;;2.78;1.60;;;;;;;;;;5040153;28;20202;-82
2022/04/10 17:26:02;;;;;;;1.70;1.55;;;;;;;;;;5042035;28;20170;-81
2022/04/10 17:28:34;;;;;;;2.97;1.83;;;;;;;;;;5042234;28;20195;-83
2022/04/10 17:31:03;;;;;;;2.40;1.80;;;;;;;;;;5041215;28;20162;-83
2022/04/10 17:33:32;;;;;;;4.13;1.60;;;;;;;;;;5044288;28;20208;-82
2022/04/10 17:36:00;;;;;;;1.90;1.73;;;;;;;;;;5031274;28;20194;-82
2022/04/10 17:38:29;;;;;;;1.50;1.40;;;;;;;;;;5040090;28;20219;-83
2022/04/10 17:41:00;;;;;;;1.92;1.70;;;;;;;;;;5024481;28;20267;-83